createdAt,value
2022-11-07T00:06:21.148Z,1.65
2022-11-07T00:11:53.233Z,1.70
2022-11-07T00:17:25.093Z,1.80
2022-11-07T00:22:56.797Z,1.85
2022-11-07T00:28:28.552Z,1.90
2022-11-07T00:34:00.378Z,2.05
2022-11-07T00:39:32.168Z,2.10
2022-11-07T00:50:33.325Z,2.30
2022-11-07T00:56:05.310Z,2.30
2022-11-07T01:01:37.706Z,2.40
2022-11-07T01:07:09.339Z,2.55
2022-11-07T01:12:41.154Z,2.70
2022-11-07T01:18:12.511Z,2.85
2022-11-07T01:23:43.966Z,3.05
2022-11-07T01:29:16.191Z,3.15
2022-11-07T01:34:52.291Z,3.30
2022-11-07T01:40:23.996Z,3.30
2022-11-07T01:45:55.805Z,3.35
2022-11-07T01:51:27.610Z,3.40
2022-11-07T01:57:02.879Z,3.45
2022-11-07T02:02:36.345Z,3.60
2022-11-07T02:08:09.609Z,3.65
2022-11-07T02:13:42.775Z,3.85
2022-11-07T02:19:16.500Z,3.95
2022-11-07T02:24:48.299Z,3.95
2022-11-07T02:30:20.298Z,4.15
2022-11-07T02:35:53.566Z,4.35
2022-11-07T02:41:25.440Z,4.45
2022-11-07T02:46:58.841Z,4.60
2022-11-07T02:52:32.138Z,4.75
2022-11-07T02:58:04.371Z,4.85
2022-11-07T03:03:39.633Z,4.90
2022-11-07T03:09:14.874Z,5.05
2022-11-07T03:14:48.053Z,5.10
2022-11-07T03:20:19.863Z,5.15
2022-11-07T03:25:52.052Z,5.15
2022-11-07T03:31:23.924Z,5.25
2022-11-07T03:36:58.966Z,5.45
2022-11-07T03:42:32.491Z,5.55
2022-11-07T03:48:04.688Z,5.65
2022-11-07T03:53:38.213Z,5.75
2022-11-07T03:59:10.688Z,5.80
2022-11-07T04:04:42.749Z,5.80
2022-11-07T04:10:15.005Z,5.90
2022-11-07T04:15:46.635Z,6.05
2022-11-07T04:21:18.592Z,6.20
2022-11-07T04:26:50.332Z,6.30
2022-11-07T04:32:22.227Z,6.35
2022-11-07T04:37:54.319Z,6.40
2022-11-07T04:43:26.435Z,6.40
2022-11-07T04:48:58.498Z,6.40
2022-11-07T04:54:30.284Z,6.45
2022-11-07T05:00:03.514Z,6.55
2022-11-07T05:05:35.871Z,6.70
2022-11-07T05:11:09.578Z,6.70
2022-11-07T05:16:44.675Z,6.75
2022-11-07T05:22:16.732Z,6.75
2022-11-07T05:27:48.958Z,6.80
2022-11-07T05:33:21.035Z,6.95
2022-11-07T05:38:52.921Z,6.95
2022-11-07T05:44:25.500Z,7.15
2022-11-07T05:49:57.319Z,7.25
2022-11-07T05:55:29.056Z,7.40
2022-11-07T06:01:00.890Z,7.45
2022-11-07T06:06:32.727Z,7.55
2022-11-07T06:17:34.900Z,7.75
2022-11-07T06:23:06.768Z,7.85
2022-11-07T06:28:38.647Z,8.00
2022-11-07T06:34:10.622Z,8.10
2022-11-07T06:39:42.385Z,8.15
2022-11-07T06:45:14.888Z,8.20
2022-11-07T06:50:47.034Z,8.25
2022-11-07T06:56:18.794Z,8.65
2022-11-07T07:01:50.780Z,8.70
2022-11-07T07:07:23.060Z,8.80
2022-11-07T07:12:55.320Z,8.85
2022-11-07T07:18:27.562Z,8.90
2022-11-07T07:23:59.828Z,8.90
2022-11-07T07:29:31.956Z,8.90
2022-11-07T07:35:04.008Z,9.00
2022-11-07T07:40:36.815Z,9.10
2022-11-07T07:46:08.957Z,9.15
2022-11-07T07:51:40.992Z,9.30
2022-11-07T07:57:13.353Z,9.45
2022-11-07T08:02:47.987Z,9.50
2022-11-07T08:08:20.075Z,9.50
2022-11-07T08:13:52.256Z,9.55
2022-11-07T08:19:24.263Z,9.75
2022-11-07T08:24:59.019Z,9.80
2022-11-07T08:30:31.196Z,9.80
2022-11-07T08:36:03.461Z,9.95
2022-11-07T08:41:35.800Z,10.20
2022-11-07T08:47:08.704Z,10.30
2022-11-07T08:52:39.936Z,10.35
2022-11-07T08:58:11.705Z,10.45
2022-11-07T09:03:48.675Z,10.50
2022-11-07T09:09:16.748Z,10.60
2022-11-07T09:14:47.147Z,10.75
2022-11-07T09:20:18.865Z,10.80
2022-11-07T09:25:50.693Z,10.85
2022-11-07T09:31:22.256Z,11.00
2022-11-07T09:36:54.318Z,11.05
2022-11-07T09:42:26.433Z,11.10
2022-11-07T09:53:30.640Z,11.25
2022-11-07T09:59:03.034Z,11.35
2022-11-07T10:04:35.129Z,11.35
2022-11-07T10:10:06.928Z,11.35
2022-11-07T10:15:38.670Z,11.45
2022-11-07T10:21:36.644Z,11.45
2022-11-07T10:26:42.698Z,11.45
2022-11-07T10:32:14.539Z,11.50
2022-11-07T10:37:46.775Z,11.65
2022-11-07T10:43:19.115Z,11.70
2022-11-07T10:48:51.719Z,11.80
2022-11-07T10:54:23.343Z,12.10
2022-11-07T11:00:01.121Z,12.20
2022-11-07T11:05:32.907Z,12.25
2022-11-07T11:11:04.740Z,12.30
2022-11-07T11:16:36.751Z,12.55
2022-11-07T11:22:09.758Z,12.60
2022-11-07T11:24:21.467Z,2.95
2022-11-07T11:30:01.601Z,2.46
2022-11-07T11:35:36.346Z,2.30
2022-11-07T11:41:10.293Z,1.71
2022-11-07T11:46:37.024Z,2.16
2022-11-07T11:52:08.907Z,2.12
2022-11-07T11:57:40.985Z,2.10
2022-11-07T12:03:12.784Z,2.20
2022-11-07T12:08:44.634Z,1.96
2022-11-07T12:14:18.497Z,2.06
2022-11-07T12:19:50.632Z,2.05
2022-11-07T12:25:22.312Z,1.96
2022-11-07T12:30:54.102Z,2.11
2022-11-07T12:36:31.947Z,2.31
2022-11-07T12:42:04.302Z,2.29
2022-11-07T12:53:14.631Z,2.30
2022-11-07T12:58:46.398Z,2.23
2022-11-07T13:04:18.140Z,2.11
2022-11-07T13:09:49.751Z,2.15
2022-11-07T13:15:21.813Z,2.25
2022-11-07T13:20:59.197Z,2.40
2022-11-07T13:32:03.028Z,2.50
2022-11-07T13:37:34.632Z,2.50
2022-11-07T13:43:06.532Z,2.60
2022-11-07T13:48:38.635Z,2.60
2022-11-07T13:54:10.543Z,2.70
2022-11-07T13:59:42.348Z,2.80
2022-11-07T14:05:16.873Z,2.85
2022-11-07T14:10:46.021Z,3.00
2022-11-07T14:16:17.948Z,3.05
2022-11-07T14:21:50.018Z,3.10
2022-11-07T14:27:22.184Z,3.20
2022-11-07T14:43:57.808Z,3.50
2022-11-07T14:49:29.883Z,3.55
2022-11-07T14:55:01.727Z,3.75
2022-11-07T15:00:33.857Z,3.90
2022-11-07T15:06:05.671Z,3.90
2022-11-07T15:11:37.724Z,4.00
2022-11-07T15:22:41.321Z,4.25
2022-11-07T15:33:45.418Z,4.40
2022-11-07T15:39:17.151Z,4.45
2022-11-07T15:50:20.509Z,4.70
2022-11-07T15:55:58.446Z,4.85
2022-11-07T16:01:32.376Z,5.00
2022-11-07T16:12:38.473Z,5.40
2022-11-07T16:18:12.863Z,5.60
2022-11-07T16:23:44.653Z,5.65
2022-11-07T16:29:17.066Z,5.70
2022-11-07T16:45:53.579Z,5.80
2022-11-07T16:51:25.676Z,6.00
2022-11-07T16:56:57.716Z,6.15
2022-11-07T17:02:31.019Z,6.25
2022-11-07T17:08:02.903Z,6.40
2022-11-07T17:13:35.167Z,6.55
2022-11-07T17:19:07.316Z,6.70
2022-11-07T17:24:39.941Z,6.80
2022-11-07T17:30:11.949Z,6.90
2022-11-07T17:35:44.277Z,7.00
2022-11-07T17:41:16.362Z,7.00
2022-11-07T17:46:48.139Z,7.00
2022-11-07T17:52:20.409Z,7.10
2022-11-07T17:57:52.809Z,7.15
2022-11-07T18:03:24.955Z,7.40
2022-11-07T18:08:57.718Z,7.45
2022-11-07T18:14:29.427Z,7.55
2022-11-07T18:20:01.342Z,7.65
2022-11-07T18:25:33.562Z,7.80
2022-11-07T18:31:06.061Z,7.90
2022-11-07T18:36:38.406Z,8.00
2022-11-07T18:42:10.607Z,8.20
2022-11-07T18:47:42.861Z,8.25
2022-11-07T18:53:14.646Z,8.35
2022-11-07T18:58:46.826Z,8.40
2022-11-07T19:04:18.831Z,8.40
2022-11-07T19:09:50.962Z,8.45
2022-11-07T19:15:23.137Z,8.55
2022-11-07T19:20:55.169Z,8.60
2022-11-07T19:26:26.972Z,8.70
2022-11-07T19:31:59.022Z,8.85
2022-11-07T19:37:31.025Z,8.90
2022-11-07T19:43:03.128Z,8.90
2022-11-07T19:48:35.462Z,9.10
2022-11-07T19:54:07.619Z,9.10
2022-11-07T19:59:39.810Z,9.25
2022-11-07T20:05:11.555Z,9.30
2022-11-07T20:10:43.104Z,9.40
2022-11-07T20:16:15.128Z,9.45
2022-11-07T20:21:46.983Z,9.55
2022-11-07T20:27:18.963Z,9.65
2022-11-07T20:32:50.809Z,9.75
2022-11-07T20:43:55.290Z,10.00
2022-11-07T20:49:27.483Z,10.10
2022-11-07T20:54:59.525Z,10.20
2022-11-07T21:00:31.518Z,10.30
2022-11-07T21:06:03.194Z,10.40
2022-11-07T21:11:35.273Z,10.55
2022-11-07T21:17:07.552Z,10.70
2022-11-07T21:22:39.549Z,10.75
2022-11-07T21:28:11.469Z,10.85
2022-11-07T21:33:43.338Z,10.95
2022-11-07T21:39:15.489Z,11.00
2022-11-07T21:44:47.653Z,11.00
2022-11-07T21:50:42.906Z,11.05
2022-11-07T21:55:52.035Z,11.20
2022-11-07T22:01:24.141Z,11.40
2022-11-07T22:06:56.104Z,11.65
2022-11-07T22:12:28.458Z,11.80
2022-11-07T22:18:00.563Z,11.95
2022-11-07T22:23:32.431Z,12.10
2022-11-07T22:29:04.572Z,12.20
2022-11-07T22:34:36.224Z,12.30
2022-11-07T22:40:10.550Z,12.30
2022-11-07T22:45:42.794Z,12.30
2022-11-07T22:51:14.598Z,12.40
2022-11-07T22:56:46.658Z,12.50
2022-11-07T23:02:18.459Z,12.55
2022-11-07T23:07:50.413Z,12.70
2022-11-07T23:13:22.723Z,12.80
2022-11-07T23:18:54.789Z,12.80
2022-11-07T23:24:26.515Z,12.90
2022-11-07T23:29:58.256Z,13.05
2022-11-07T23:35:30.061Z,13.25
2022-11-07T23:41:01.842Z,13.30
2022-11-07T23:46:35.340Z,13.45
2022-11-07T23:57:44.151Z,13.60
